sensor_id;sensor_type;location;lat;lon;timestamp;temperature;humidity
67163;DHT22;54092;53.088;8.850;2023-12-14T00:00:43;4.70;99.90
67163;DHT22;54092;53.088;8.850;2023-12-14T00:03:08;4.70;99.90
67163;DHT22;54092;53.088;8.850;2023-12-14T00:05:34;4.70;99.90
67163;DHT22;54092;53.088;8.850;2023-12-14T00:08:00;4.80;99.90
67163;DHT22;54092;53.088;8.850;2023-12-14T00:10:26;4.70;99.90
67163;DHT22;54092;53.088;8.850;2023-12-14T00:12:51;4.70;99.90
67163;DHT22;54092;53.088;8.850;2023-12-14T00:15:18;4.70;99.90
67163;DHT22;54092;53.088;8.850;2023-12-14T00:17:44;4.80;99.90
67163;DHT22;54092;53.088;8.850;2023-12-14T00:20:09;4.80;99.90
67163;DHT22;54092;53.088;8.850;2023-12-14T00:22:35;4.70;99.90
67163;DHT22;54092;53.088;8.850;2023-12-14T00:25:01;4.70;99.90
67163;DHT22;54092;53.088;8.850;2023-12-14T00:27:26;4.70;99.90
67163;DHT22;54092;53.088;8.850;2023-12-14T00:29:52;4.70;99.90
67163;DHT22;54092;53.088;8.850;2023-12-14T00:32:17;4.70;99.90
67163;DHT22;54092;53.088;8.850;2023-12-14T00:34:43;4.70;99.90
67163;DHT22;54092;53.088;8.850;2023-12-14T00:37:08;4.70;99.90
67163;DHT22;54092;53.088;8.850;2023-12-14T00:39:34;4.70;99.90
67163;DHT22;54092;53.088;8.850;2023-12-14T00:41:59;4.70;99.90
67163;DHT22;54092;53.088;8.850;2023-12-14T00:44:25;4.60;99.90
67163;DHT22;54092;53.088;8.850;2023-12-14T00:46:50;4.60;99.90
67163;DHT22;54092;53.088;8.850;2023-12-14T00:49:15;4.60;99.90
67163;DHT22;54092;53.088;8.850;2023-12-14T00:51:43;4.60;99.90
67163;DHT22;54092;53.088;8.850;2023-12-14T00:54:08;4.60;99.90
67163;DHT22;54092;53.088;8.850;2023-12-14T00:56:34;4.60;99.90
67163;DHT22;54092;53.088;8.850;2023-12-14T00:58:59;4.60;99.90
67163;DHT22;54092;53.088;8.850;2023-12-14T01:01:25;4.60;99.90
67163;DHT22;54092;53.088;8.850;2023-12-14T01:03:50;4.60;99.90
67163;DHT22;54092;53.088;8.850;2023-12-14T01:06:16;4.60;99.90
67163;DHT22;54092;53.088;8.850;2023-12-14T01:08:41;4.60;99.90
67163;DHT22;54092;53.088;8.850;2023-12-14T01:11:07;4.60;99.90
67163;DHT22;54092;53.088;8.850;2023-12-14T01:13:33;4.60;99.90
67163;DHT22;54092;53.088;8.850;2023-12-14T01:15:58;4.70;99.90
67163;DHT22;54092;53.088;8.850;2023-12-14T01:18:23;4.60;99.90
67163;DHT22;54092;53.088;8.850;2023-12-14T01:20:50;4.60;99.90
67163;DHT22;54092;53.088;8.850;2023-12-14T01:23:15;4.60;99.90
67163;DHT22;54092;53.088;8.850;2023-12-14T01:25:41;4.60;99.90
67163;DHT22;54092;53.088;8.850;2023-12-14T01:28:06;4.60;99.90
67163;DHT22;54092;53.088;8.850;2023-12-14T01:30:32;4.60;99.90
67163;DHT22;54092;53.088;8.850;2023-12-14T01:32:57;4.60;99.90
67163;DHT22;54092;53.088;8.850;2023-12-14T01:35:23;4.60;99.90
67163;DHT22;54092;53.088;8.850;2023-12-14T01:37:49;4.60;99.90
67163;DHT22;54092;53.088;8.850;2023-12-14T01:40:18;4.70;99.90
67163;DHT22;54092;53.088;8.850;2023-12-14T01:42:44;4.60;99.90
67163;DHT22;54092;53.088;8.850;2023-12-14T01:45:09;4.60;99.90
67163;DHT22;54092;53.088;8.850;2023-12-14T01:47:35;4.50;99.90
67163;DHT22;54092;53.088;8.850;2023-12-14T01:50:01;4.50;99.90
67163;DHT22;54092;53.088;8.850;2023-12-14T01:52:26;4.50;99.90
67163;DHT22;54092;53.088;8.850;2023-12-14T01:54:52;4.40;99.90
67163;DHT22;54092;53.088;8.850;2023-12-14T01:57:17;4.40;99.90
67163;DHT22;54092;53.088;8.850;2023-12-14T01:59:43;4.40;99.90
67163;DHT22;54092;53.088;8.850;2023-12-14T02:02:09;4.30;99.90
67163;DHT22;54092;53.088;8.850;2023-12-14T02:04:34;4.20;99.90
67163;DHT22;54092;53.088;8.850;2023-12-14T02:07:00;4.20;99.90
67163;DHT22;54092;53.088;8.850;2023-12-14T02:09:26;4.10;99.90
67163;DHT22;54092;53.088;8.850;2023-12-14T02:11:51;4.10;99.90
67163;DHT22;54092;53.088;8.850;2023-12-14T02:14:17;4.10;99.90
67163;DHT22;54092;53.088;8.850;2023-12-14T02:16:42;4.10;99.90
67163;DHT22;54092;53.088;8.850;2023-12-14T02:19:08;4.10;99.90
67163;DHT22;54092;53.088;8.850;2023-12-14T02:21:33;4.10;99.90
67163;DHT22;54092;53.088;8.850;2023-12-14T02:23:59;4.10;99.90
67163;DHT22;54092;53.088;8.850;2023-12-14T02:26:24;4.10;99.90
67163;DHT22;54092;53.088;8.850;2023-12-14T02:28:49;4.20;99.90
67163;DHT22;54092;53.088;8.850;2023-12-14T02:31:15;4.20;99.90
67163;DHT22;54092;53.088;8.850;2023-12-14T02:33:41;4.20;99.90
67163;DHT22;54092;53.088;8.850;2023-12-14T02:36:06;4.30;99.90
67163;DHT22;54092;53.088;8.850;2023-12-14T02:38:32;4.30;99.90
67163;DHT22;54092;53.088;8.850;2023-12-14T02:40:58;4.30;99.90
67163;DHT22;54092;53.088;8.850;2023-12-14T02:43:24;4.30;99.90
67163;DHT22;54092;53.088;8.850;2023-12-14T02:45:49;4.30;99.90
67163;DHT22;54092;53.088;8.850;2023-12-14T02:48:15;4.30;99.90
67163;DHT22;54092;53.088;8.850;2023-12-14T02:50:41;4.30;99.90
67163;DHT22;54092;53.088;8.850;2023-12-14T02:53:06;4.30;99.90
67163;DHT22;54092;53.088;8.850;2023-12-14T02:55:32;4.30;99.90
67163;DHT22;54092;53.088;8.850;2023-12-14T02:57:57;4.40;99.90
67163;DHT22;54092;53.088;8.850;2023-12-14T03:00:22;4.40;99.90
67163;DHT22;54092;53.088;8.850;2023-12-14T03:02:48;4.40;99.90
67163;DHT22;54092;53.088;8.850;2023-12-14T03:05:13;4.40;99.90
67163;DHT22;54092;53.088;8.850;2023-12-14T03:07:39;4.40;99.90
67163;DHT22;54092;53.088;8.850;2023-12-14T03:10:05;4.40;99.90
67163;DHT22;54092;53.088;8.850;2023-12-14T03:12:31;4.40;99.90
67163;DHT22;54092;53.088;8.850;2023-12-14T03:14:56;4.40;99.90
67163;DHT22;54092;53.088;8.850;2023-12-14T03:17:22;4.50;99.90
67163;DHT22;54092;53.088;8.850;2023-12-14T03:19:47;4.40;99.90
67163;DHT22;54092;53.088;8.850;2023-12-14T03:22:13;4.50;99.90
67163;DHT22;54092;53.088;8.850;2023-12-14T03:24:38;4.40;99.90
67163;DHT22;54092;53.088;8.850;2023-12-14T03:27:04;4.50;99.90
67163;DHT22;54092;53.088;8.850;2023-12-14T03:29:30;4.50;99.90
67163;DHT22;54092;53.088;8.850;2023-12-14T03:31:56;4.50;99.90
67163;DHT22;54092;53.088;8.850;2023-12-14T03:34:22;4.50;99.90
67163;DHT22;54092;53.088;8.850;2023-12-14T03:36:47;4.50;99.90
67163;DHT22;54092;53.088;8.850;2023-12-14T03:39:13;4.60;99.90
67163;DHT22;54092;53.088;8.850;2023-12-14T03:41:38;4.60;99.90
67163;DHT22;54092;53.088;8.850;2023-12-14T03:44:04;4.60;99.90
67163;DHT22;54092;53.088;8.850;2023-12-14T03:46:30;4.60;99.90
67163;DHT22;54092;53.088;8.850;2023-12-14T03:48:55;4.60;99.90
67163;DHT22;54092;53.088;8.850;2023-12-14T03:51:21;4.60;99.90
67163;DHT22;54092;53.088;8.850;2023-12-14T03:53:46;4.70;99.90
67163;DHT22;54092;53.088;8.850;2023-12-14T03:56:12;4.60;99.90
67163;DHT22;54092;53.088;8.850;2023-12-14T03:58:38;4.60;99.90
67163;DHT22;54092;53.088;8.850;2023-12-14T04:01:03;4.60;99.90
67163;DHT22;54092;53.088;8.850;2023-12-14T04:03:29;4.60;99.90
67163;DHT22;54092;53.088;8.850;2023-12-14T04:05:54;4.60;99.90
67163;DHT22;54092;53.088;8.850;2023-12-14T04:08:20;4.70;99.90
67163;DHT22;54092;53.088;8.850;2023-12-14T04:10:45;4.70;99.90
67163;DHT22;54092;53.088;8.850;2023-12-14T04:13:11;4.70;99.90
67163;DHT22;54092;53.088;8.850;2023-12-14T04:15:36;4.70;99.90
67163;DHT22;54092;53.088;8.850;2023-12-14T04:18:02;4.60;99.90
67163;DHT22;54092;53.088;8.850;2023-12-14T04:20:27;4.70;99.90
67163;DHT22;54092;53.088;8.850;2023-12-14T04:22:53;4.70;99.90
67163;DHT22;54092;53.088;8.850;2023-12-14T04:25:18;4.70;99.90
67163;DHT22;54092;53.088;8.850;2023-12-14T04:27:44;4.70;99.90
67163;DHT22;54092;53.088;8.850;2023-12-14T04:30:10;4.70;99.90
67163;DHT22;54092;53.088;8.850;2023-12-14T04:32:37;4.70;99.90
67163;DHT22;54092;53.088;8.850;2023-12-14T04:35:03;4.70;99.90
67163;DHT22;54092;53.088;8.850;2023-12-14T04:37:29;4.70;99.90
67163;DHT22;54092;53.088;8.850;2023-12-14T04:39:55;4.70;99.90
67163;DHT22;54092;53.088;8.850;2023-12-14T04:42:21;4.70;99.90
67163;DHT22;54092;53.088;8.850;2023-12-14T04:44:46;4.70;99.90
67163;DHT22;54092;53.088;8.850;2023-12-14T04:47:12;4.70;99.90
67163;DHT22;54092;53.088;8.850;2023-12-14T04:49:37;4.70;99.90
67163;DHT22;54092;53.088;8.850;2023-12-14T04:52:03;4.70;99.90
67163;DHT22;54092;53.088;8.850;2023-12-14T04:54:28;4.70;99.90
67163;DHT22;54092;53.088;8.850;2023-12-14T04:56:54;4.80;99.90
67163;DHT22;54092;53.088;8.850;2023-12-14T04:59:19;4.80;99.90
67163;DHT22;54092;53.088;8.850;2023-12-14T05:01:45;4.80;99.90
67163;DHT22;54092;53.088;8.850;2023-12-14T05:04:10;4.80;99.90
67163;DHT22;54092;53.088;8.850;2023-12-14T05:06:36;4.80;99.90
67163;DHT22;54092;53.088;8.850;2023-12-14T05:09:03;4.80;99.90
67163;DHT22;54092;53.088;8.850;2023-12-14T05:11:31;4.80;99.90
67163;DHT22;54092;53.088;8.850;2023-12-14T05:13:56;4.70;99.90
67163;DHT22;54092;53.088;8.850;2023-12-14T05:16:23;4.70;99.90
67163;DHT22;54092;53.088;8.850;2023-12-14T05:18:52;4.80;99.90
67163;DHT22;54092;53.088;8.850;2023-12-14T05:21:18;4.70;99.90
67163;DHT22;54092;53.088;8.850;2023-12-14T05:23:43;4.70;99.90
67163;DHT22;54092;53.088;8.850;2023-12-14T05:26:09;4.70;99.90
67163;DHT22;54092;53.088;8.850;2023-12-14T05:28:34;4.70;99.90
67163;DHT22;54092;53.088;8.850;2023-12-14T05:31:00;4.70;99.90
67163;DHT22;54092;53.088;8.850;2023-12-14T05:33:26;4.70;99.90
67163;DHT22;54092;53.088;8.850;2023-12-14T05:35:51;4.70;99.90
67163;DHT22;54092;53.088;8.850;2023-12-14T05:38:17;4.70;99.90
67163;DHT22;54092;53.088;8.850;2023-12-14T05:40:42;4.70;99.90
67163;DHT22;54092;53.088;8.850;2023-12-14T05:43:09;4.70;99.90
67163;DHT22;54092;53.088;8.850;2023-12-14T05:45:35;4.70;99.90
67163;DHT22;54092;53.088;8.850;2023-12-14T05:48:01;4.70;99.90
67163;DHT22;54092;53.088;8.850;2023-12-14T05:50:27;4.80;99.90
67163;DHT22;54092;53.088;8.850;2023-12-14T05:52:52;4.80;99.90
67163;DHT22;54092;53.088;8.850;2023-12-14T05:55:18;4.80;99.90
67163;DHT22;54092;53.088;8.850;2023-12-14T05:57:49;4.80;99.90
67163;DHT22;54092;53.088;8.850;2023-12-14T06:00:15;4.80;99.90
67163;DHT22;54092;53.088;8.850;2023-12-14T06:02:41;4.80;99.90
67163;DHT22;54092;53.088;8.850;2023-12-14T06:05:07;4.80;99.90
67163;DHT22;54092;53.088;8.850;2023-12-14T06:07:33;4.80;99.90
67163;DHT22;54092;53.088;8.850;2023-12-14T06:09:59;4.80;99.90
67163;DHT22;54092;53.088;8.850;2023-12-14T06:12:26;4.80;99.90
67163;DHT22;54092;53.088;8.850;2023-12-14T06:14:51;4.80;99.90
67163;DHT22;54092;53.088;8.850;2023-12-14T06:17:17;4.80;99.90
67163;DHT22;54092;53.088;8.850;2023-12-14T06:19:42;4.80;99.90
67163;DHT22;54092;53.088;8.850;2023-12-14T06:22:08;4.80;99.90
67163;DHT22;54092;53.088;8.850;2023-12-14T06:24:33;4.80;99.90
67163;DHT22;54092;53.088;8.850;2023-12-14T06:26:59;4.90;99.90
67163;DHT22;54092;53.088;8.850;2023-12-14T06:29:24;4.90;99.90
67163;DHT22;54092;53.088;8.850;2023-12-14T06:31:50;4.90;99.90
67163;DHT22;54092;53.088;8.850;2023-12-14T06:34:16;4.90;99.90
67163;DHT22;54092;53.088;8.850;2023-12-14T06:36:44;4.90;99.90
67163;DHT22;54092;53.088;8.850;2023-12-14T06:39:10;4.90;99.90
67163;DHT22;54092;53.088;8.850;2023-12-14T06:41:36;4.90;99.90
67163;DHT22;54092;53.088;8.850;2023-12-14T06:44:02;4.80;99.90
67163;DHT22;54092;53.088;8.850;2023-12-14T06:46:28;4.90;99.90
67163;DHT22;54092;53.088;8.850;2023-12-14T06:48:53;4.80;99.90
67163;DHT22;54092;53.088;8.850;2023-12-14T06:51:19;4.80;99.90
67163;DHT22;54092;53.088;8.850;2023-12-14T06:53:45;4.90;99.90
67163;DHT22;54092;53.088;8.850;2023-12-14T06:56:11;4.90;99.90
67163;DHT22;54092;53.088;8.850;2023-12-14T06:58:39;4.90;99.90
67163;DHT22;54092;53.088;8.850;2023-12-14T07:01:05;4.90;99.90
67163;DHT22;54092;53.088;8.850;2023-12-14T07:03:31;4.90;99.90
67163;DHT22;54092;53.088;8.850;2023-12-14T07:05:57;4.90;99.90
67163;DHT22;54092;53.088;8.850;2023-12-14T07:08:23;4.90;99.90
67163;DHT22;54092;53.088;8.850;2023-12-14T07:10:49;4.90;99.90
67163;DHT22;54092;53.088;8.850;2023-12-14T07:13:14;4.80;99.90
67163;DHT22;54092;53.088;8.850;2023-12-14T07:15:40;4.80;99.90
67163;DHT22;54092;53.088;8.850;2023-12-14T07:18:05;4.90;99.90
67163;DHT22;54092;53.088;8.850;2023-12-14T07:20:31;4.90;99.90
67163;DHT22;54092;53.088;8.850;2023-12-14T07:22:56;4.90;99.90
67163;DHT22;54092;53.088;8.850;2023-12-14T07:25:21;4.90;99.90
67163;DHT22;54092;53.088;8.850;2023-12-14T07:27:47;4.90;99.90
67163;DHT22;54092;53.088;8.850;2023-12-14T07:30:13;4.90;99.90
67163;DHT22;54092;53.088;8.850;2023-12-14T07:32:39;4.90;99.90
67163;DHT22;54092;53.088;8.850;2023-12-14T07:35:05;5.00;99.90
67163;DHT22;54092;53.088;8.850;2023-12-14T07:37:30;5.00;99.90
67163;DHT22;54092;53.088;8.850;2023-12-14T07:39:56;5.00;99.90
67163;DHT22;54092;53.088;8.850;2023-12-14T07:42:23;5.00;99.90
67163;DHT22;54092;53.088;8.850;2023-12-14T07:44:48;5.00;99.90
67163;DHT22;54092;53.088;8.850;2023-12-14T07:47:14;5.00;99.90
67163;DHT22;54092;53.088;8.850;2023-12-14T07:49:39;5.00;99.90
67163;DHT22;54092;53.088;8.850;2023-12-14T07:52:05;5.00;99.90
67163;DHT22;54092;53.088;8.850;2023-12-14T07:54:31;5.00;99.90
67163;DHT22;54092;53.088;8.850;2023-12-14T07:56:56;5.00;99.90
67163;DHT22;54092;53.088;8.850;2023-12-14T07:59:22;5.00;99.90
67163;DHT22;54092;53.088;8.850;2023-12-14T08:01:48;5.00;99.90
67163;DHT22;54092;53.088;8.850;2023-12-14T08:04:13;5.00;99.90
67163;DHT22;54092;53.088;8.850;2023-12-14T08:06:39;5.00;99.90
67163;DHT22;54092;53.088;8.850;2023-12-14T08:09:05;5.00;99.90
67163;DHT22;54092;53.088;8.850;2023-12-14T08:11:33;4.90;99.90
67163;DHT22;54092;53.088;8.850;2023-12-14T08:13:59;4.90;99.90
67163;DHT22;54092;53.088;8.850;2023-12-14T08:16:24;4.90;99.90
67163;DHT22;54092;53.088;8.850;2023-12-14T08:18:50;4.90;99.90
67163;DHT22;54092;53.088;8.850;2023-12-14T08:21:18;4.90;99.90
67163;DHT22;54092;53.088;8.850;2023-12-14T08:23:44;4.90;99.90
67163;DHT22;54092;53.088;8.850;2023-12-14T08:26:10;4.90;99.90
67163;DHT22;54092;53.088;8.850;2023-12-14T08:28:37;4.90;99.90
67163;DHT22;54092;53.088;8.850;2023-12-14T08:31:03;4.90;99.90
67163;DHT22;54092;53.088;8.850;2023-12-14T08:33:29;4.90;99.90
67163;DHT22;54092;53.088;8.850;2023-12-14T08:35:55;4.90;99.90
67163;DHT22;54092;53.088;8.850;2023-12-14T08:38:21;4.90;99.90
67163;DHT22;54092;53.088;8.850;2023-12-14T08:40:46;4.90;99.90
67163;DHT22;54092;53.088;8.850;2023-12-14T08:43:12;5.00;99.90
67163;DHT22;54092;53.088;8.850;2023-12-14T08:45:38;5.00;99.90
67163;DHT22;54092;53.088;8.850;2023-12-14T08:48:04;5.00;99.90
67163;DHT22;54092;53.088;8.850;2023-12-14T08:50:29;5.00;99.90
67163;DHT22;54092;53.088;8.850;2023-12-14T08:52:55;5.10;99.90
67163;DHT22;54092;53.088;8.850;2023-12-14T08:55:20;5.10;99.90
67163;DHT22;54092;53.088;8.850;2023-12-14T08:57:47;5.10;99.90
67163;DHT22;54092;53.088;8.850;2023-12-14T09:00:13;5.20;99.90
67163;DHT22;54092;53.088;8.850;2023-12-14T09:02:38;5.30;99.90
67163;DHT22;54092;53.088;8.850;2023-12-14T09:05:04;5.30;99.90
67163;DHT22;54092;53.088;8.850;2023-12-14T09:07:31;5.20;99.90
67163;DHT22;54092;53.088;8.850;2023-12-14T09:09:56;5.20;99.90
67163;DHT22;54092;53.088;8.850;2023-12-14T09:12:22;5.20;99.90
67163;DHT22;54092;53.088;8.850;2023-12-14T09:14:48;5.30;99.90
67163;DHT22;54092;53.088;8.850;2023-12-14T09:17:13;5.40;99.90
67163;DHT22;54092;53.088;8.850;2023-12-14T09:19:39;5.40;99.90
67163;DHT22;54092;53.088;8.850;2023-12-14T09:22:04;5.40;99.90
67163;DHT22;54092;53.088;8.850;2023-12-14T09:24:30;5.50;99.90
67163;DHT22;54092;53.088;8.850;2023-12-14T09:26:55;5.50;99.90
67163;DHT22;54092;53.088;8.850;2023-12-14T09:29:21;5.50;99.90
67163;DHT22;54092;53.088;8.850;2023-12-14T09:31:47;5.40;99.90
67163;DHT22;54092;53.088;8.850;2023-12-14T09:34:13;5.40;99.90
67163;DHT22;54092;53.088;8.850;2023-12-14T09:36:39;5.40;99.90
67163;DHT22;54092;53.088;8.850;2023-12-14T09:39:05;5.40;99.90
67163;DHT22;54092;53.088;8.850;2023-12-14T09:41:30;5.60;99.90
67163;DHT22;54092;53.088;8.850;2023-12-14T09:43:56;5.50;99.90
67163;DHT22;54092;53.088;8.850;2023-12-14T09:46:23;5.50;99.90
67163;DHT22;54092;53.088;8.850;2023-12-14T09:48:50;5.50;99.90
67163;DHT22;54092;53.088;8.850;2023-12-14T09:51:16;5.60;99.90
67163;DHT22;54092;53.088;8.850;2023-12-14T09:53:42;5.60;99.90
67163;DHT22;54092;53.088;8.850;2023-12-14T09:56:08;5.60;99.90
67163;DHT22;54092;53.088;8.850;2023-12-14T09:58:34;5.60;99.90
67163;DHT22;54092;53.088;8.850;2023-12-14T10:00:59;5.60;99.90
67163;DHT22;54092;53.088;8.850;2023-12-14T10:03:28;5.60;99.90
67163;DHT22;54092;53.088;8.850;2023-12-14T10:05:55;5.70;99.90
67163;DHT22;54092;53.088;8.850;2023-12-14T10:08:21;5.70;99.90
67163;DHT22;54092;53.088;8.850;2023-12-14T10:10:49;5.70;99.90
67163;DHT22;54092;53.088;8.850;2023-12-14T10:13:16;5.70;99.90
67163;DHT22;54092;53.088;8.850;2023-12-14T10:15:43;5.70;99.90
67163;DHT22;54092;53.088;8.850;2023-12-14T10:18:09;5.70;99.90
67163;DHT22;54092;53.088;8.850;2023-12-14T10:20:34;5.70;99.90
67163;DHT22;54092;53.088;8.850;2023-12-14T10:23:00;5.70;99.90
67163;DHT22;54092;53.088;8.850;2023-12-14T10:25:25;5.70;99.90
67163;DHT22;54092;53.088;8.850;2023-12-14T10:27:51;5.70;99.90
67163;DHT22;54092;53.088;8.850;2023-12-14T10:30:20;5.70;99.90
67163;DHT22;54092;53.088;8.850;2023-12-14T10:32:48;5.70;99.90
67163;DHT22;54092;53.088;8.850;2023-12-14T10:35:16;5.70;99.90
67163;DHT22;54092;53.088;8.850;2023-12-14T10:37:42;5.70;99.90
67163;DHT22;54092;53.088;8.850;2023-12-14T10:40:09;5.80;99.90
67163;DHT22;54092;53.088;8.850;2023-12-14T10:42:39;5.80;99.90
67163;DHT22;54092;53.088;8.850;2023-12-14T10:45:07;5.80;99.90
67163;DHT22;54092;53.088;8.850;2023-12-14T10:47:34;5.90;99.90
67163;DHT22;54092;53.088;8.850;2023-12-14T10:50:00;5.90;99.90
67163;DHT22;54092;53.088;8.850;2023-12-14T10:52:27;5.90;99.90
67163;DHT22;54092;53.088;8.850;2023-12-14T10:55:00;5.90;99.90
67163;DHT22;54092;53.088;8.850;2023-12-14T10:57:28;5.90;99.90
67163;DHT22;54092;53.088;8.850;2023-12-14T11:00:03;5.90;99.90
67163;DHT22;54092;53.088;8.850;2023-12-14T11:02:41;5.90;99.90
67163;DHT22;54092;53.088;8.850;2023-12-14T11:05:12;5.90;99.90
67163;DHT22;54092;53.088;8.850;2023-12-14T11:10:19;5.90;99.90
67163;DHT22;54092;53.088;8.850;2023-12-14T11:12:51;5.80;99.90
67163;DHT22;54092;53.088;8.850;2023-12-14T11:15:19;5.80;99.90
67163;DHT22;54092;53.088;8.850;2023-12-14T11:21:00;5.90;99.90
67163;DHT22;54092;53.088;8.850;2023-12-14T11:23:33;5.90;99.90
67163;DHT22;54092;53.088;8.850;2023-12-14T11:26:08;5.90;99.90
67163;DHT22;54092;53.088;8.850;2023-12-14T11:28:39;5.90;99.90
67163;DHT22;54092;53.088;8.850;2023-12-14T11:31:11;5.90;99.90
67163;DHT22;54092;53.088;8.850;2023-12-14T11:33:37;5.90;99.90
67163;DHT22;54092;53.088;8.850;2023-12-14T11:36:03;5.90;99.90
67163;DHT22;54092;53.088;8.850;2023-12-14T11:38:29;5.90;99.90
67163;DHT22;54092;53.088;8.850;2023-12-14T11:40:55;5.90;99.90
67163;DHT22;54092;53.088;8.850;2023-12-14T11:43:21;5.90;99.90
67163;DHT22;54092;53.088;8.850;2023-12-14T11:45:47;6.00;99.90
67163;DHT22;54092;53.088;8.850;2023-12-14T11:48:13;6.00;99.90
67163;DHT22;54092;53.088;8.850;2023-12-14T11:50:42;6.00;99.90
67163;DHT22;54092;53.088;8.850;2023-12-14T11:53:09;6.00;99.90
67163;DHT22;54092;53.088;8.850;2023-12-14T11:55:36;6.00;99.90
67163;DHT22;54092;53.088;8.850;2023-12-14T11:58:02;6.00;99.90
67163;DHT22;54092;53.088;8.850;2023-12-14T12:00:29;6.10;99.90
67163;DHT22;54092;53.088;8.850;2023-12-14T12:03:18;6.10;99.90
67163;DHT22;54092;53.088;8.850;2023-12-14T12:05:49;6.00;99.90
67163;DHT22;54092;53.088;8.850;2023-12-14T12:08:15;6.00;99.90
67163;DHT22;54092;53.088;8.850;2023-12-14T12:10:42;6.00;99.90
67163;DHT22;54092;53.088;8.850;2023-12-14T12:13:17;6.00;99.90
67163;DHT22;54092;53.088;8.850;2023-12-14T12:15:42;6.00;99.90
67163;DHT22;54092;53.088;8.850;2023-12-14T12:18:17;6.00;99.90
67163;DHT22;54092;53.088;8.850;2023-12-14T12:20:43;6.00;99.90
67163;DHT22;54092;53.088;8.850;2023-12-14T12:23:09;6.10;99.90
67163;DHT22;54092;53.088;8.850;2023-12-14T12:25:34;6.10;99.90
67163;DHT22;54092;53.088;8.850;2023-12-14T12:28:01;6.20;99.90
67163;DHT22;54092;53.088;8.850;2023-12-14T12:30:27;6.10;99.90
67163;DHT22;54092;53.088;8.850;2023-12-14T12:32:53;6.10;99.90
67163;DHT22;54092;53.088;8.850;2023-12-14T12:35:22;6.20;99.90
67163;DHT22;54092;53.088;8.850;2023-12-14T12:37:48;6.30;99.90
67163;DHT22;54092;53.088;8.850;2023-12-14T12:40:19;6.20;99.90
67163;DHT22;54092;53.088;8.850;2023-12-14T12:42:45;6.20;99.90
67163;DHT22;54092;53.088;8.850;2023-12-14T12:45:13;6.30;99.90
67163;DHT22;54092;53.088;8.850;2023-12-14T12:47:39;6.20;99.90
67163;DHT22;54092;53.088;8.850;2023-12-14T12:50:05;6.10;99.90
67163;DHT22;54092;53.088;8.850;2023-12-14T12:52:31;6.10;99.90
67163;DHT22;54092;53.088;8.850;2023-12-14T12:54:56;6.10;99.90
67163;DHT22;54092;53.088;8.850;2023-12-14T12:57:22;6.10;99.90
67163;DHT22;54092;53.088;8.850;2023-12-14T12:59:47;6.10;99.90
67163;DHT22;54092;53.088;8.850;2023-12-14T13:02:13;6.20;99.90
67163;DHT22;54092;53.088;8.850;2023-12-14T13:04:38;6.10;99.90
67163;DHT22;54092;53.088;8.850;2023-12-14T13:07:03;6.20;99.90
67163;DHT22;54092;53.088;8.850;2023-12-14T13:09:29;6.20;99.90
67163;DHT22;54092;53.088;8.850;2023-12-14T13:11:55;6.20;99.90
67163;DHT22;54092;53.088;8.850;2023-12-14T13:14:21;6.30;99.90
67163;DHT22;54092;53.088;8.850;2023-12-14T13:16:46;6.30;99.90
67163;DHT22;54092;53.088;8.850;2023-12-14T13:19:13;6.30;99.90
67163;DHT22;54092;53.088;8.850;2023-12-14T13:21:39;6.30;99.90
67163;DHT22;54092;53.088;8.850;2023-12-14T13:24:04;6.20;99.90
67163;DHT22;54092;53.088;8.850;2023-12-14T13:26:30;6.10;99.90
67163;DHT22;54092;53.088;8.850;2023-12-14T13:28:55;6.10;99.90
67163;DHT22;54092;53.088;8.850;2023-12-14T13:31:21;6.10;99.90
67163;DHT22;54092;53.088;8.850;2023-12-14T13:33:47;6.00;99.90
67163;DHT22;54092;53.088;8.850;2023-12-14T13:36:13;6.00;99.90
67163;DHT22;54092;53.088;8.850;2023-12-14T13:38:40;6.00;99.90
67163;DHT22;54092;53.088;8.850;2023-12-14T13:41:05;6.00;99.90
67163;DHT22;54092;53.088;8.850;2023-12-14T13:43:31;6.00;99.90
67163;DHT22;54092;53.088;8.850;2023-12-14T13:45:57;5.90;99.90
67163;DHT22;54092;53.088;8.850;2023-12-14T13:48:25;5.90;99.90
67163;DHT22;54092;53.088;8.850;2023-12-14T13:50:52;5.90;99.90
67163;DHT22;54092;53.088;8.850;2023-12-14T13:53:17;5.90;99.90
67163;DHT22;54092;53.088;8.850;2023-12-14T13:55:43;5.80;99.90
67163;DHT22;54092;53.088;8.850;2023-12-14T13:58:08;5.80;99.90
67163;DHT22;54092;53.088;8.850;2023-12-14T14:00:34;5.80;99.90
67163;DHT22;54092;53.088;8.850;2023-12-14T14:03:00;5.80;99.90
67163;DHT22;54092;53.088;8.850;2023-12-14T14:05:26;5.70;99.90
67163;DHT22;54092;53.088;8.850;2023-12-14T14:07:52;5.70;99.90
67163;DHT22;54092;53.088;8.850;2023-12-14T14:10:19;5.60;99.90
67163;DHT22;54092;53.088;8.850;2023-12-14T14:12:45;5.60;99.90
67163;DHT22;54092;53.088;8.850;2023-12-14T14:15:11;5.60;99.90
67163;DHT22;54092;53.088;8.850;2023-12-14T14:17:37;5.60;99.90
67163;DHT22;54092;53.088;8.850;2023-12-14T14:20:03;5.60;99.90
67163;DHT22;54092;53.088;8.850;2023-12-14T14:22:30;5.60;99.90
67163;DHT22;54092;53.088;8.850;2023-12-14T14:24:55;5.60;99.90
67163;DHT22;54092;53.088;8.850;2023-12-14T14:27:21;5.60;99.90
67163;DHT22;54092;53.088;8.850;2023-12-14T14:29:47;5.60;99.90
67163;DHT22;54092;53.088;8.850;2023-12-14T14:32:13;5.60;99.90
67163;DHT22;54092;53.088;8.850;2023-12-14T14:34:39;5.50;99.90
67163;DHT22;54092;53.088;8.850;2023-12-14T14:37:04;5.50;99.90
67163;DHT22;54092;53.088;8.850;2023-12-14T14:39:30;5.10;99.90
67163;DHT22;54092;53.088;8.850;2023-12-14T14:41:56;5.50;99.90
67163;DHT22;54092;53.088;8.850;2023-12-14T14:44:21;5.50;99.90
67163;DHT22;54092;53.088;8.850;2023-12-14T14:46:47;5.50;99.90
67163;DHT22;54092;53.088;8.850;2023-12-14T14:49:13;5.40;99.90
67163;DHT22;54092;53.088;8.850;2023-12-14T14:51:38;5.40;99.90
67163;DHT22;54092;53.088;8.850;2023-12-14T14:54:04;5.40;99.90
67163;DHT22;54092;53.088;8.850;2023-12-14T14:56:29;5.30;99.90
67163;DHT22;54092;53.088;8.850;2023-12-14T14:58:55;5.40;99.90
67163;DHT22;54092;53.088;8.850;2023-12-14T15:01:21;5.30;99.90
67163;DHT22;54092;53.088;8.850;2023-12-14T15:03:46;5.30;99.90
67163;DHT22;54092;53.088;8.850;2023-12-14T15:06:12;5.30;99.90
67163;DHT22;54092;53.088;8.850;2023-12-14T15:08:37;5.30;99.90
67163;DHT22;54092;53.088;8.850;2023-12-14T15:11:03;5.30;99.90
67163;DHT22;54092;53.088;8.850;2023-12-14T15:13:28;5.30;99.90
67163;DHT22;54092;53.088;8.850;2023-12-14T15:15:54;5.30;99.90
67163;DHT22;54092;53.088;8.850;2023-12-14T15:18:21;5.20;99.90
67163;DHT22;54092;53.088;8.850;2023-12-14T15:20:46;5.20;99.90
67163;DHT22;54092;53.088;8.850;2023-12-14T15:23:14;5.10;99.90
67163;DHT22;54092;53.088;8.850;2023-12-14T15:25:39;5.10;99.90
67163;DHT22;54092;53.088;8.850;2023-12-14T15:28:05;5.00;99.90
67163;DHT22;54092;53.088;8.850;2023-12-14T15:30:31;5.00;99.90
67163;DHT22;54092;53.088;8.850;2023-12-14T15:32:56;4.90;99.90
67163;DHT22;54092;53.088;8.850;2023-12-14T15:35:22;4.90;99.90
67163;DHT22;54092;53.088;8.850;2023-12-14T15:37:47;4.90;99.90
67163;DHT22;54092;53.088;8.850;2023-12-14T15:40:13;4.90;99.90
67163;DHT22;54092;53.088;8.850;2023-12-14T15:42:38;4.90;99.90